GMT,Max TemperatureF,Mean TemperatureF,Min TemperatureF,Max Dew PointF,MeanDew PointF,Min DewpointF,Max Humidity, Mean Humidity, Min Humidity, Max Sea Level PressureIn, Mean Sea Level PressureIn, Min Sea Level PressureIn, Max VisibilityMiles, Mean VisibilityMiles, Min VisibilityMiles, Max Wind SpeedMPH, Mean Wind SpeedMPH, Max Gust SpeedMPH,PrecipitationIn, CloudCover, Events, WindDirDegrees
2010-10-1,60,58,55,59,55,50,94,90,82,29.83,29.62,29.47,6,6,1,18,11,,0.00,5,Rain,175
2010-10-2,60,54,48,55,52,48,100,90,68,29.71,29.63,29.50,6,5,2,9,6,,0.00,4,Rain,191
2010-10-3,64,58,53,59,55,52,100,87,77,29.50,29.41,29.33,6,6,4,18,9,,0.00,4,Rain,171
2010-10-4,60,56,51,57,55,52,100,92,82,29.53,29.49,29.47,6,4,1,10,4,,0.00,6,Rain,259
2010-10-5,64,58,51,59,55,50,94,86,63,29.62,29.54,29.50,6,6,3,13,8,,0.00,5,,187
2010-10-6,64,58,50,57,51,45,100,80,49,30.01,29.72,29.50,6,5,1,18,9,,0.00,3,Rain,209
2010-10-7,64,55,46,57,50,45,94,80,56,30.09,30.04,30.01,6,6,3,13,6,,0.00,4,,103
2010-10-8,69,63,57,61,58,55,94,86,68,30.04,29.99,29.95,6,3,1,15,10,,0.00,6,,84
2010-10-9,64,62,59,57,56,54,88,84,77,30.04,29.96,29.92,6,4,2,14,9,,0.00,7,,66
2010-10-10,68,60,53,57,51,43,94,73,40,30.01,29.90,29.86,6,4,2,15,8,,0.00,6,,52
2010-10-11,64,58,51,50,48,43,88,73,45,30.12,30.06,30.01,6,5,4,14,9,,0.00,5,,40
2010-10-12,59,54,50,46,46,45,87,75,63,30.15,30.13,30.09,6,6,6,12,7,,0.00,5,,35
2010-10-13,53,52,50,45,43,41,76,71,62,30.18,30.15,30.12,6,6,6,8,7,,0.00,6,,35
2010-10-14,51,50,50,46,43,41,87,76,71,30.18,30.15,30.12,6,6,4,7,5,,0.00,7,,4
2010-10-15,55,52,48,48,47,43,94,85,63,30.15,30.07,29.98,6,5,2,10,6,,0.00,6,Rain,327
2010-10-16,55,48,42,46,42,36,93,79,62,30.27,30.12,30.01,6,6,6,12,6,,0.00,3,Rain,349
2010-10-17,55,48,41,39,36,34,87,68,44,30.33,30.29,30.24,6,6,6,7,5,,0.00,3,,344
2010-10-18,57,47,37,48,42,34,93,77,63,30.24,30.11,29.95,6,6,6,15,7,,0.00,3,Rain,246
2010-10-19,55,48,41,48,43,37,94,81,58,29.92,29.86,29.77,6,6,6,17,11,,0.00,2,Rain,290
2010-10-20,48,42,35,37,31,25,87,68,40,30.24,30.11,29.92,6,6,6,12,7,,0.00,1,,307
2010-10-21,53,42,32,41,36,28,93,78,58,30.27,30.21,30.15,6,6,6,16,7,25,0.00,2,,257
2010-10-22,57,48,39,45,42,37,100,81,58,30.15,30.05,29.86,6,6,6,15,7,18,0.00,2,,234
2010-10-23,53,48,44,50,45,41,94,83,71,29.86,29.64,29.53,6,6,5,20,11,,0.00,3,Rain-Thunderstorm,259
2010-10-24,51,44,37,41,37,34,93,79,58,30.24,29.99,29.77,6,6,6,12,5,,0.00,2,,332
2010-10-25,53,43,33,37,34,30,93,75,50,30.42,30.36,30.24,6,6,6,8,4,,0.00,1,,292
2010-10-26,57,46,35,54,44,32,94,87,76,30.42,30.22,30.09,6,6,4,15,8,,0.00,6,Rain,206
2010-10-27,62,56,50,55,51,46,94,83,63,30.09,30.03,30.01,6,6,3,17,12,,0.00,3,Rain,231
2010-10-28,60,55,50,52,50,48,94,83,72,30.01,29.97,29.89,6,6,6,15,11,25,0.00,3,,214
2010-10-29,59,56,51,52,50,48,94,83,72,29.86,29.54,29.33,6,6,6,18,13,31,0.00,4,Rain,187
2010-10-30,57,52,46,50,48,45,94,85,72,29.47,29.45,29.39,6,6,5,13,8,26,0.00,2,Rain,184
2010-10-31,55,52,50,52,49,46,94,90,82,29.77,29.53,29.39,6,6,5,12,8,,0.00,2,Rain,60